Time;durP1;ratioP1;P1;durP2;ratioP2;P2;SDS_P1;SDS_P2;PMS_P1;PMS_P2;Temp;Humidity;BMP_temperature;BMP_pressure;BME280_temperature;BME280_humidity;BME280_pressure;Samples;Min_cycle;Max_cycle;Signal;HPM_P1;HPM_P2
2021/11/23 00:00:09;;;;;;;19.8;12.05;;;;;;;3.66;87.07031;95870.03;;;;
2021/11/23 00:01:13;;;;;;;21.45;13.7;;;;;;;3.66;87.04883;95878.54;;;;
2021/11/23 00:02:15;;;;;;;21.45;13.7;;;;;;;3.66;87.04883;95878.54;;;;
2021/11/23 00:03:17;;;;;;;21.45;13.7;;;;;;;3.66;87.04883;95878.54;;;;
2021/11/23 00:04:19;;;;;;;21.45;13.7;;;;;;;3.66;87.04883;95878.54;;;;
2021/11/23 00:05:19;;;;;;;21.45;13.7;;;;;;;3.66;87.04883;95878.54;;;;
2021/11/23 00:06:21;;;;;;;21.45;13.7;;;;;;;3.66;87.04883;95878.54;;;;
2021/11/23 00:07:21;;;;;;;21.45;13.7;;;;;;;3.66;87.04883;95878.54;;;;
2021/11/23 00:08:22;;;;;;;21.45;13.7;;;;;;;3.66;87.04883;95878.54;;;;
2021/11/23 00:09:22;;;;;;;21.45;13.7;;;;;;;3.66;87.04883;95878.54;;;;
2021/11/23 00:10:23;;;;;;;21.45;13.7;;;;;;;3.66;87.04883;95878.54;;;;
2021/11/23 00:11:23;;;;;;;21.45;13.7;;;;;;;3.66;87.04883;95878.54;;;;
2021/11/23 00:12:24;;;;;;;19.9;13.5;;;;;;;3.66;87.14355;95887.88;;;;
2021/11/23 00:13:25;;;;;;;19.9;13.5;;;;;;;3.66;87.14355;95887.88;;;;
2021/11/23 00:14:25;;;;;;;19.9;13.5;;;;;;;3.66;87.14355;95887.88;;;;
2021/11/23 00:15:26;;;;;;;19.9;13.5;;;;;;;3.66;87.14355;95887.88;;;;
2021/11/23 00:16:26;;;;;;;19.9;13.5;;;;;;;3.66;87.14355;95887.88;;;;
2021/11/23 00:17:27;;;;;;;19.9;13.5;;;;;;;3.66;87.14355;95887.88;;;;
2021/11/23 00:18:27;;;;;;;19.9;13.5;;;;;;;3.66;87.14355;95887.88;;;;
2021/11/23 00:19:28;;;;;;;19.9;13.5;;;;;;;3.66;87.14355;95887.88;;;;
2021/11/23 00:20:28;;;;;;;19.9;13.5;;;;;;;3.66;87.14355;95887.88;;;;
2021/11/23 00:21:29;;;;;;;19.9;13.5;;;;;;;3.66;87.14355;95887.88;;;;
2021/11/23 00:22:31;;;;;;;19.9;13.5;;;;;;;3.66;87.14355;95887.88;;;;
2021/11/23 00:23:32;;;;;;;19.9;13.5;;;;;;;3.66;87.14355;95887.88;;;;
2021/11/23 00:24:32;;;;;;;19.9;13.5;;;;;;;3.66;87.14355;95887.88;;;;
2021/11/23 00:25:33;;;;;;;19.9;13.5;;;;;;;3.66;87.14355;95887.88;;;;
2021/11/23 00:26:33;;;;;;;19.9;13.5;;;;;;;3.66;87.14355;95887.88;;;;
2021/11/23 00:27:34;;;;;;;19.9;13.5;;;;;;;3.66;87.14355;95887.88;;;;
2021/11/23 00:28:34;;;;;;;19.9;13.5;;;;;;;3.66;87.14355;95887.88;;;;
2021/11/23 00:29:35;;;;;;;19.9;13.5;;;;;;;3.66;87.14355;95887.88;;;;
2021/11/23 00:30:36;;;;;;;19.9;13.5;;;;;;;3.66;87.14355;95887.88;;;;
2021/11/23 00:31:36;;;;;;;19.9;13.5;;;;;;;3.66;87.14355;95887.88;;;;
2021/11/23 00:32:37;;;;;;;19.9;13.5;;;;;;;3.66;87.14355;95887.88;;;;
2021/11/23 00:33:42;;;;;;;20.25;12.85;;;;;;;3.66;87.25879;95899.41;;;;
2021/11/23 00:34:42;;;;;;;20.25;12.85;;;;;;;3.66;87.25879;95899.41;;;;
2021/11/23 00:35:43;;;;;;;20.25;12.85;;;;;;;3.66;87.25879;95899.41;;;;
2021/11/23 00:36:44;;;;;;;20.25;12.85;;;;;;;3.66;87.25879;95899.41;;;;
2021/11/23 00:37:46;;;;;;;20.25;12.85;;;;;;;3.66;87.25879;95899.41;;;;
2021/11/23 00:38:47;;;;;;;20.25;12.85;;;;;;;3.66;87.25879;95899.41;;;;
2021/11/23 00:39:48;;;;;;;20.25;12.85;;;;;;;3.66;87.25879;95899.41;;;;
2021/11/23 00:40:49;;;;;;;20.25;12.85;;;;;;;3.66;87.25879;95899.41;;;;
2021/11/23 00:41:49;;;;;;;20.25;12.85;;;;;;;3.66;87.25879;95899.41;;;;
2021/11/23 00:42:50;;;;;;;20.25;12.85;;;;;;;3.66;87.25879;95899.41;;;;
2021/11/23 00:43:51;;;;;;;20.25;12.85;;;;;;;3.66;87.25879;95899.41;;;;
2021/11/23 00:44:52;;;;;;;18.4;11.9;;;;;;;3.58;87.24316;95898.11;;;;
2021/11/23 00:45:52;;;;;;;18.4;11.9;;;;;;;3.58;87.24316;95898.11;;;;
2021/11/23 00:46:53;;;;;;;18.4;11.9;;;;;;;3.58;87.24316;95898.11;;;;
2021/11/23 00:47:54;;;;;;;18.4;11.9;;;;;;;3.58;87.24316;95898.11;;;;
2021/11/23 00:48:54;;;;;;;18.4;11.9;;;;;;;3.58;87.24316;95898.11;;;;
2021/11/23 00:49:55;;;;;;;18.4;11.9;;;;;;;3.58;87.24316;95898.11;;;;
2021/11/23 00:50:55;;;;;;;18.4;11.9;;;;;;;3.58;87.24316;95898.11;;;;
2021/11/23 00:51:56;;;;;;;18.4;11.9;;;;;;;3.58;87.24316;95898.11;;;;
2021/11/23 00:52:56;;;;;;;18.4;11.9;;;;;;;3.58;87.24316;95898.11;;;;
2021/11/23 00:53:57;;;;;;;18.4;11.9;;;;;;;3.58;87.24316;95898.11;;;;
2021/11/23 00:54:57;;;;;;;17.95;12.15;;;;;;;3.49;87.46777;95908.94;;;;
2021/11/23 00:55:58;;;;;;;17.95;12.15;;;;;;;3.49;87.46777;95908.94;;;;
2021/11/23 00:56:59;;;;;;;17.95;12.15;;;;;;;3.49;87.46777;95908.94;;;;
2021/11/23 00:57:59;;;;;;;17.95;12.15;;;;;;;3.49;87.46777;95908.94;;;;
2021/11/23 00:59:00;;;;;;;17.95;12.15;;;;;;;3.49;87.46777;95908.94;;;;
2021/11/23 01:00:01;;;;;;;17.95;12.15;;;;;;;3.49;87.46777;95908.94;;;;
2021/11/23 01:01:05;;;;;;;17.95;12.15;;;;;;;3.49;87.46777;95908.94;;;;
2021/11/23 01:02:05;;;;;;;17.95;12.15;;;;;;;3.49;87.46777;95908.94;;;;
2021/11/23 01:03:07;;;;;;;17.95;12.15;;;;;;;3.49;87.46777;95908.94;;;;
2021/11/23 01:04:07;;;;;;;17.95;12.15;;;;;;;3.49;87.46777;95908.94;;;;
2021/11/23 01:05:08;;;;;;;17.95;12.15;;;;;;;3.49;87.46777;95908.94;;;;
2021/11/23 01:06:09;;;;;;;16.9;11.35;;;;;;;3.43;87.5166;95906.58;;;;
2021/11/23 01:07:09;;;;;;;16.9;11.35;;;;;;;3.43;87.5166;95906.58;;;;
2021/11/23 01:08:10;;;;;;;16.9;11.35;;;;;;;3.43;87.5166;95906.58;;;;
2021/11/23 01:09:10;;;;;;;16.9;11.35;;;;;;;3.43;87.5166;95906.58;;;;
2021/11/23 01:10:11;;;;;;;16.9;11.35;;;;;;;3.43;87.5166;95906.58;;;;
2021/11/23 01:11:12;;;;;;;16.9;11.35;;;;;;;3.43;87.5166;95906.58;;;;
2021/11/23 01:12:15;;;;;;;16.9;11.35;;;;;;;3.43;87.5166;95906.58;;;;
2021/11/23 01:13:16;;;;;;;16.9;11.35;;;;;;;3.43;87.5166;95906.58;;;;
2021/11/23 01:14:17;;;;;;;16.9;11.35;;;;;;;3.43;87.5166;95906.58;;;;
2021/11/23 01:15:17;;;;;;;16.9;11.35;;;;;;;3.43;87.5166;95906.58;;;;
2021/11/23 01:16:18;;;;;;;18.1;11.7;;;;;;;3.35;87.51855;95913.78;;;;
2021/11/23 01:17:19;;;;;;;18.1;11.7;;;;;;;3.35;87.51855;95913.78;;;;
2021/11/23 01:18:20;;;;;;;18.1;11.7;;;;;;;3.35;87.51855;95913.78;;;;
2021/11/23 01:19:20;;;;;;;18.1;11.7;;;;;;;3.35;87.51855;95913.78;;;;
2021/11/23 01:20:21;;;;;;;18.1;11.7;;;;;;;3.35;87.51855;95913.78;;;;
2021/11/23 01:21:22;;;;;;;18.1;11.7;;;;;;;3.35;87.51855;95913.78;;;;
2021/11/23 01:22:22;;;;;;;18.1;11.7;;;;;;;3.35;87.51855;95913.78;;;;
2021/11/23 01:23:23;;;;;;;18.1;11.7;;;;;;;3.35;87.51855;95913.78;;;;
2021/11/23 01:24:24;;;;;;;18.1;11.7;;;;;;;3.35;87.51855;95913.78;;;;
2021/11/23 01:25:24;;;;;;;18.1;11.7;;;;;;;3.35;87.51855;95913.78;;;;
2021/11/23 01:26:25;;;;;;;18.1;11.7;;;;;;;3.35;87.51855;95913.78;;;;
2021/11/23 01:27:26;;;;;;;18.65;11.9;;;;;;;3.26;87.65039;95924.1;;;;
2021/11/23 01:28:26;;;;;;;18.65;11.9;;;;;;;3.26;87.65039;95924.1;;;;
2021/11/23 01:29:27;;;;;;;18.65;11.9;;;;;;;3.26;87.65039;95924.1;;;;
2021/11/23 01:30:27;;;;;;;18.65;11.9;;;;;;;3.26;87.65039;95924.1;;;;
2021/11/23 01:31:28;;;;;;;18.65;11.9;;;;;;;3.26;87.65039;95924.1;;;;
2021/11/23 01:32:29;;;;;;;18.65;11.9;;;;;;;3.26;87.65039;95924.1;;;;
2021/11/23 01:33:29;;;;;;;18.65;11.9;;;;;;;3.26;87.65039;95924.1;;;;
2021/11/23 01:34:30;;;;;;;18.65;11.9;;;;;;;3.26;87.65039;95924.1;;;;
2021/11/23 01:35:31;;;;;;;18.65;11.9;;;;;;;3.26;87.65039;95924.1;;;;
2021/11/23 01:36:31;;;;;;;18.65;11.9;;;;;;;3.26;87.65039;95924.1;;;;
2021/11/23 01:37:32;;;;;;;18.65;11.9;;;;;;;3.26;87.65039;95924.1;;;;
2021/11/23 01:38:32;;;;;;;18.65;11.9;;;;;;;3.26;87.65039;95924.1;;;;
2021/11/23 01:39:33;;;;;;;18.65;11.9;;;;;;;3.26;87.65039;95924.1;;;;
2021/11/23 01:40:33;;;;;;;18.65;11.9;;;;;;;3.26;87.65039;95924.1;;;;
2021/11/23 01:41:35;;;;;;;18.65;11.9;;;;;;;3.26;87.65039;95924.1;;;;
2021/11/23 01:42:35;;;;;;;18.65;11.9;;;;;;;3.26;87.65039;95924.1;;;;
2021/11/23 01:43:36;;;;;;;18.65;11.9;;;;;;;3.26;87.65039;95924.1;;;;
2021/11/23 01:44:37;;;;;;;18.65;11.9;;;;;;;3.26;87.65039;95924.1;;;;
2021/11/23 01:45:38;;;;;;;18.65;11.9;;;;;;;3.26;87.65039;95924.1;;;;
2021/11/23 01:46:40;;;;;;;18.65;11.9;;;;;;;3.26;87.65039;95924.1;;;;
2021/11/23 01:47:40;;;;;;;18.65;11.9;;;;;;;3.26;87.65039;95924.1;;;;
2021/11/23 01:48:41;;;;;;;19.2;12.35;;;;;;;3.22;87.51465;95925.56;;;;
2021/11/23 01:49:42;;;;;;;19.2;12.35;;;;;;;3.22;87.51465;95925.56;;;;
2021/11/23 01:50:43;;;;;;;19.2;12.35;;;;;;;3.22;87.51465;95925.56;;;;
2021/11/23 01:51:43;;;;;;;19.2;12.35;;;;;;;3.22;87.51465;95925.56;;;;
2021/11/23 01:52:44;;;;;;;19.2;12.35;;;;;;;3.22;87.51465;95925.56;;;;
2021/11/23 01:53:45;;;;;;;19.2;12.35;;;;;;;3.22;87.51465;95925.56;;;;
2021/11/23 01:54:46;;;;;;;19.2;12.35;;;;;;;3.22;87.51465;95925.56;;;;
2021/11/23 01:55:47;;;;;;;19.2;12.35;;;;;;;3.22;87.51465;95925.56;;;;
2021/11/23 01:56:47;;;;;;;19.2;12.35;;;;;;;3.22;87.51465;95925.56;;;;
2021/11/23 01:57:48;;;;;;;19.2;12.35;;;;;;;3.22;87.51465;95925.56;;;;
2021/11/23 01:58:49;;;;;;;18.25;10.95;;;;;;;3.11;87.34668;95931.17;;;;
2021/11/23 01:59:49;;;;;;;18.25;10.95;;;;;;;3.11;87.34668;95931.17;;;;
2021/11/23 02:00:50;;;;;;;18.25;10.95;;;;;;;3.11;87.34668;95931.17;;;;
2021/11/23 02:01:51;;;;;;;18.25;10.95;;;;;;;3.11;87.34668;95931.17;;;;
2021/11/23 02:02:52;;;;;;;18.25;10.95;;;;;;;3.11;87.34668;95931.17;;;;
2021/11/23 02:03:52;;;;;;;18.25;10.95;;;;;;;3.11;87.34668;95931.17;;;;
2021/11/23 02:04:53;;;;;;;18.25;10.95;;;;;;;3.11;87.34668;95931.17;;;;
2021/11/23 02:05:54;;;;;;;18.25;10.95;;;;;;;3.11;87.34668;95931.17;;;;
2021/11/23 02:06:54;;;;;;;18.25;10.95;;;;;;;3.11;87.34668;95931.17;;;;
2021/11/23 02:07:55;;;;;;;18.25;10.95;;;;;;;3.11;87.34668;95931.17;;;;
2021/11/23 02:08:55;;;;;;;18.25;10.95;;;;;;;3.11;87.34668;95931.17;;;;
2021/11/23 02:09:56;;;;;;;16.45;10.25;;;;;;;3.02;87.32813;95924.74;;;;
2021/11/23 02:10:57;;;;;;;16.45;10.25;;;;;;;3.02;87.32813;95924.74;;;;
2021/11/23 02:11:58;;;;;;;16.45;10.25;;;;;;;3.02;87.32813;95924.74;;;;
2021/11/23 02:12:59;;;;;;;16.45;10.25;;;;;;;3.02;87.32813;95924.74;;;;
2021/11/23 02:14:01;;;;;;;16.45;10.25;;;;;;;3.02;87.32813;95924.74;;;;
2021/11/23 02:15:03;;;;;;;16.45;10.25;;;;;;;3.02;87.32813;95924.74;;;;
2021/11/23 02:16:06;;;;;;;16.45;10.25;;;;;;;3.02;87.32813;95924.74;;;;
2021/11/23 02:17:07;;;;;;;16.45;10.25;;;;;;;3.02;87.32813;95924.74;;;;
2021/11/23 02:18:08;;;;;;;16.45;10.25;;;;;;;3.02;87.32813;95924.74;;;;
2021/11/23 02:19:13;;;;;;;16.45;10.25;;;;;;;3.02;87.32813;95924.74;;;;
2021/11/23 02:20:14;;;;;;;16.05;10.1;;;;;;;2.98;87.34082;95937.59;;;;
2021/11/23 02:21:17;;;;;;;16.05;10.1;;;;;;;2.98;87.34082;95937.59;;;;
2021/11/23 02:22:18;;;;;;;16.05;10.1;;;;;;;2.98;87.34082;95937.59;;;;
2021/11/23 02:23:19;;;;;;;16.05;10.1;;;;;;;2.98;87.34082;95937.59;;;;
2021/11/23 02:24:20;;;;;;;16.05;10.1;;;;;;;2.98;87.34082;95937.59;;;;
2021/11/23 02:25:21;;;;;;;16.05;10.1;;;;;;;2.98;87.34082;95937.59;;;;
2021/11/23 02:26:21;;;;;;;16.05;10.1;;;;;;;2.98;87.34082;95937.59;;;;
2021/11/23 02:27:22;;;;;;;16.05;10.1;;;;;;;2.98;87.34082;95937.59;;;;
2021/11/23 02:28:22;;;;;;;16.05;10.1;;;;;;;2.98;87.34082;95937.59;;;;
2021/11/23 02:29:23;;;;;;;16.05;10.1;;;;;;;2.98;87.34082;95937.59;;;;
2021/11/23 02:30:23;;;;;;;16.05;10.1;;;;;;;2.98;87.34082;95937.59;;;;
2021/11/23 02:31:24;;;;;;;16.75;10.25;;;;;;;2.94;87.33203;95941.19;;;;
2021/11/23 02:32:24;;;;;;;16.75;10.25;;;;;;;2.94;87.33203;95941.19;;;;
2021/11/23 02:33:25;;;;;;;16.75;10.25;;;;;;;2.94;87.33203;95941.19;;;;
2021/11/23 02:34:28;;;;;;;16.75;10.25;;;;;;;2.94;87.33203;95941.19;;;;
2021/11/23 02:35:29;;;;;;;16.75;10.25;;;;;;;2.94;87.33203;95941.19;;;;
2021/11/23 02:36:29;;;;;;;16.75;10.25;;;;;;;2.94;87.33203;95941.19;;;;
2021/11/23 02:37:30;;;;;;;16.75;10.25;;;;;;;2.94;87.33203;95941.19;;;;
2021/11/23 02:38:30;;;;;;;16.75;10.25;;;;;;;2.94;87.33203;95941.19;;;;
2021/11/23 02:39:33;;;;;;;16.75;10.25;;;;;;;2.94;87.33203;95941.19;;;;
2021/11/23 02:40:34;;;;;;;16.75;10.25;;;;;;;2.94;87.33203;95941.19;;;;
2021/11/23 02:41:35;;;;;;;15.95;9.950001;;;;;;;2.85;87.3252;95934.64;;;;
2021/11/23 02:42:38;;;;;;;15.95;9.950001;;;;;;;2.85;87.3252;95934.64;;;;
2021/11/23 02:43:39;;;;;;;15.95;9.950001;;;;;;;2.85;87.3252;95934.64;;;;
2021/11/23 02:44:41;;;;;;;15.95;9.950001;;;;;;;2.85;87.3252;95934.64;;;;
2021/11/23 02:45:42;;;;;;;15.95;9.950001;;;;;;;2.85;87.3252;95934.64;;;;
2021/11/23 02:46:43;;;;;;;15.95;9.950001;;;;;;;2.85;87.3252;95934.64;;;;
2021/11/23 02:47:45;;;;;;;15.95;9.950001;;;;;;;2.85;87.3252;95934.64;;;;
2021/11/23 02:48:46;;;;;;;15.95;9.950001;;;;;;;2.85;87.3252;95934.64;;;;
2021/11/23 02:49:47;;;;;;;15.95;9.950001;;;;;;;2.85;87.3252;95934.64;;;;
2021/11/23 02:50:51;;;;;;;15.95;9.950001;;;;;;;2.85;87.3252;95934.64;;;;
2021/11/23 02:51:52;;;;;;;15.95;9.950001;;;;;;;2.85;87.3252;95934.64;;;;
2021/11/23 02:52:53;;;;;;;16.4;10.1;;;;;;;2.84;87.43848;95937;;;;
2021/11/23 02:53:54;;;;;;;16.4;10.1;;;;;;;2.84;87.43848;95937;;;;
2021/11/23 02:54:54;;;;;;;16.4;10.1;;;;;;;2.84;87.43848;95937;;;;
2021/11/23 02:55:57;;;;;;;16.4;10.1;;;;;;;2.84;87.43848;95937;;;;
2021/11/23 02:56:58;;;;;;;16.4;10.1;;;;;;;2.84;87.43848;95937;;;;
2021/11/23 02:57:58;;;;;;;16.4;10.1;;;;;;;2.84;87.43848;95937;;;;
2021/11/23 02:59:00;;;;;;;16.4;10.1;;;;;;;2.84;87.43848;95937;;;;
2021/11/23 03:00:01;;;;;;;16.4;10.1;;;;;;;2.84;87.43848;95937;;;;
2021/11/23 03:01:05;;;;;;;16.4;10.1;;;;;;;2.84;87.43848;95937;;;;
2021/11/23 03:02:08;;;;;;;16.4;10.1;;;;;;;2.84;87.43848;95937;;;;
2021/11/23 03:03:10;;;;;;;14.55;9.8;;;;;;;2.85;87.35449;95933.8;;;;
2021/11/23 03:04:10;;;;;;;14.55;9.8;;;;;;;2.85;87.35449;95933.8;;;;
2021/11/23 03:05:16;;;;;;;14.55;9.8;;;;;;;2.85;87.35449;95933.8;;;;
2021/11/23 03:06:18;;;;;;;14.55;9.8;;;;;;;2.85;87.35449;95933.8;;;;
2021/11/23 03:07:19;;;;;;;14.55;9.8;;;;;;;2.85;87.35449;95933.8;;;;
2021/11/23 03:08:22;;;;;;;14.55;9.8;;;;;;;2.85;87.35449;95933.8;;;;
2021/11/23 03:09:22;;;;;;;14.55;9.8;;;;;;;2.85;87.35449;95933.8;;;;
2021/11/23 03:10:23;;;;;;;14.55;9.8;;;;;;;2.85;87.35449;95933.8;;;;
2021/11/23 03:11:26;;;;;;;14.55;9.8;;;;;;;2.85;87.35449;95933.8;;;;
2021/11/23 03:12:27;;;;;;;14.55;9.8;;;;;;;2.85;87.35449;95933.8;;;;
2021/11/23 03:13:27;;;;;;;14.95;9.95;;;;;;;2.84;87.25;95941;;;;
2021/11/23 03:14:28;;;;;;;14.95;9.95;;;;;;;2.84;87.25;95941;;;;
2021/11/23 03:15:28;;;;;;;14.95;9.95;;;;;;;2.84;87.25;95941;;;;
2021/11/23 03:16:29;;;;;;;14.95;9.95;;;;;;;2.84;87.25;95941;;;;
2021/11/23 03:17:30;;;;;;;14.95;9.95;;;;;;;2.84;87.25;95941;;;;
2021/11/23 03:18:30;;;;;;;14.95;9.95;;;;;;;2.84;87.25;95941;;;;
2021/11/23 03:19:31;;;;;;;14.95;9.95;;;;;;;2.84;87.25;95941;;;;
2021/11/23 03:20:32;;;;;;;14.95;9.95;;;;;;;2.84;87.25;95941;;;;
2021/11/23 03:21:32;;;;;;;14.95;9.95;;;;;;;2.84;87.25;95941;;;;
2021/11/23 03:22:33;;;;;;;14.95;9.95;;;;;;;2.84;87.25;95941;;;;
2021/11/23 03:23:34;;;;;;;14.95;9.95;;;;;;;2.84;87.25;95941;;;;
2021/11/23 03:24:34;;;;;;;17.85;10.25;;;;;;;2.79;87.21973;95945.98;;;;
2021/11/23 03:25:35;;;;;;;17.85;10.25;;;;;;;2.79;87.21973;95945.98;;;;
2021/11/23 03:26:36;;;;;;;17.85;10.25;;;;;;;2.79;87.21973;95945.98;;;;
2021/11/23 03:27:36;;;;;;;17.85;10.25;;;;;;;2.79;87.21973;95945.98;;;;
2021/11/23 03:28:37;;;;;;;17.85;10.25;;;;;;;2.79;87.21973;95945.98;;;;
2021/11/23 03:29:38;;;;;;;17.85;10.25;;;;;;;2.79;87.21973;95945.98;;;;
2021/11/23 03:30:40;;;;;;;17.85;10.25;;;;;;;2.79;87.21973;95945.98;;;;
2021/11/23 03:31:41;;;;;;;17.85;10.25;;;;;;;2.79;87.21973;95945.98;;;;
2021/11/23 03:32:42;;;;;;;17.85;10.25;;;;;;;2.79;87.21973;95945.98;;;;
2021/11/23 03:33:42;;;;;;;17.85;10.25;;;;;;;2.79;87.21973;95945.98;;;;
2021/11/23 03:34:43;;;;;;;16.6;10.4;;;;;;;2.77;87.23438;95936.52;;;;
2021/11/23 03:35:44;;;;;;;16.6;10.4;;;;;;;2.77;87.23438;95936.52;;;;
2021/11/23 03:36:46;;;;;;;16.6;10.4;;;;;;;2.77;87.23438;95936.52;;;;
2021/11/23 03:37:47;;;;;;;16.6;10.4;;;;;;;2.77;87.23438;95936.52;;;;
2021/11/23 03:38:48;;;;;;;16.6;10.4;;;;;;;2.77;87.23438;95936.52;;;;
2021/11/23 03:39:48;;;;;;;16.6;10.4;;;;;;;2.77;87.23438;95936.52;;;;
2021/11/23 03:40:50;;;;;;;16.6;10.4;;;;;;;2.77;87.23438;95936.52;;;;
2021/11/23 03:41:51;;;;;;;16.6;10.4;;;;;;;2.77;87.23438;95936.52;;;;
2021/11/23 03:42:52;;;;;;;16.6;10.4;;;;;;;2.77;87.23438;95936.52;;;;
2021/11/23 03:43:53;;;;;;;16.6;10.4;;;;;;;2.77;87.23438;95936.52;;;;
2021/11/23 03:44:57;;;;;;;16.6;10.4;;;;;;;2.77;87.23438;95936.52;;;;
2021/11/23 03:45:58;;;;;;;16.7;10.55;;;;;;;2.73;87.15332;95940.94;;;;
2021/11/23 03:46:59;;;;;;;16.7;10.55;;;;;;;2.73;87.15332;95940.94;;;;
2021/11/23 03:48:01;;;;;;;16.7;10.55;;;;;;;2.73;87.15332;95940.94;;;;
2021/11/23 03:49:02;;;;;;;16.7;10.55;;;;;;;2.73;87.15332;95940.94;;;;
2021/11/23 03:50:03;;;;;;;16.7;10.55;;;;;;;2.73;87.15332;95940.94;;;;
2021/11/23 03:51:07;;;;;;;16.7;10.55;;;;;;;2.73;87.15332;95940.94;;;;
2021/11/23 03:52:08;;;;;;;16.7;10.55;;;;;;;2.73;87.15332;95940.94;;;;
2021/11/23 03:53:09;;;;;;;16.7;10.55;;;;;;;2.73;87.15332;95940.94;;;;
2021/11/23 03:54:09;;;;;;;16.7;10.55;;;;;;;2.73;87.15332;95940.94;;;;
2021/11/23 03:55:10;;;;;;;16.7;10.55;;;;;;;2.73;87.15332;95940.94;;;;
2021/11/23 03:56:13;;;;;;;16.65;10.7;;;;;;;2.66;87.13965;95951.44;;;;
2021/11/23 03:57:14;;;;;;;16.65;10.7;;;;;;;2.66;87.13965;95951.44;;;;
2021/11/23 03:58:14;;;;;;;16.65;10.7;;;;;;;2.66;87.13965;95951.44;;;;
2021/11/23 03:59:15;;;;;;;16.65;10.7;;;;;;;2.66;87.13965;95951.44;;;;
2021/11/23 04:00:15;;;;;;;16.65;10.7;;;;;;;2.66;87.13965;95951.44;;;;
2021/11/23 04:01:20;;;;;;;16.65;10.7;;;;;;;2.66;87.13965;95951.44;;;;
2021/11/23 04:02:20;;;;;;;16.65;10.7;;;;;;;2.66;87.13965;95951.44;;;;
2021/11/23 04:03:24;;;;;;;16.65;10.7;;;;;;;2.66;87.13965;95951.44;;;;
2021/11/23 04:04:24;;;;;;;16.65;10.7;;;;;;;2.66;87.13965;95951.44;;;;
2021/11/23 04:05:25;;;;;;;16.65;10.7;;;;;;;2.66;87.13965;95951.44;;;;
2021/11/23 04:06:26;;;;;;;16.65;10.7;;;;;;;2.66;87.13965;95951.44;;;;
2021/11/23 04:07:27;;;;;;;16.65;10.7;;;;;;;2.66;87.13965;95951.44;;;;
2021/11/23 04:08:27;;;;;;;16.65;10.7;;;;;;;2.66;87.13965;95951.44;;;;
2021/11/23 04:09:28;;;;;;;16.65;10.7;;;;;;;2.66;87.13965;95951.44;;;;
2021/11/23 04:10:28;;;;;;;16.65;10.7;;;;;;;2.66;87.13965;95951.44;;;;
2021/11/23 04:11:29;;;;;;;16.65;10.7;;;;;;;2.66;87.13965;95951.44;;;;
2021/11/23 04:12:29;;;;;;;16.65;10.7;;;;;;;2.66;87.13965;95951.44;;;;
2021/11/23 04:13:30;;;;;;;16.65;10.7;;;;;;;2.66;87.13965;95951.44;;;;
2021/11/23 04:14:30;;;;;;;16.65;10.7;;;;;;;2.66;87.13965;95951.44;;;;
2021/11/23 04:15:31;;;;;;;16.65;10.7;;;;;;;2.66;87.13965;95951.44;;;;
2021/11/23 04:16:32;;;;;;;16.65;10.7;;;;;;;2.66;87.13965;95951.44;;;;
2021/11/23 04:17:32;;;;;;;17.8;10.6;;;;;;;2.35;87.19238;95950.12;;;;
2021/11/23 04:18:33;;;;;;;17.8;10.6;;;;;;;2.35;87.19238;95950.12;;;;
2021/11/23 04:19:34;;;;;;;17.8;10.6;;;;;;;2.35;87.19238;95950.12;;;;
2021/11/23 04:20:35;;;;;;;17.8;10.6;;;;;;;2.35;87.19238;95950.12;;;;
2021/11/23 04:21:35;;;;;;;17.8;10.6;;;;;;;2.35;87.19238;95950.12;;;;
2021/11/23 04:22:38;;;;;;;17.8;10.6;;;;;;;2.35;87.19238;95950.12;;;;
2021/11/23 04:23:40;;;;;;;17.8;10.6;;;;;;;2.35;87.19238;95950.12;;;;
2021/11/23 04:24:40;;;;;;;17.8;10.6;;;;;;;2.35;87.19238;95950.12;;;;
2021/11/23 04:25:41;;;;;;;17.8;10.6;;;;;;;2.35;87.19238;95950.12;;;;
2021/11/23 04:26:41;;;;;;;17.8;10.6;;;;;;;2.35;87.19238;95950.12;;;;
2021/11/23 04:27:42;;;;;;;17.8;10.6;;;;;;;2.35;87.19238;95950.12;;;;
2021/11/23 04:28:42;;;;;;;18.35;10.9;;;;;;;2.34;87.38867;95944.86;;;;
2021/11/23 04:29:43;;;;;;;18.35;10.9;;;;;;;2.34;87.38867;95944.86;;;;
2021/11/23 04:30:43;;;;;;;18.35;10.9;;;;;;;2.34;87.38867;95944.86;;;;
2021/11/23 04:31:44;;;;;;;18.35;10.9;;;;;;;2.34;87.38867;95944.86;;;;
2021/11/23 04:32:45;;;;;;;18.35;10.9;;;;;;;2.34;87.38867;95944.86;;;;
2021/11/23 04:33:45;;;;;;;18.35;10.9;;;;;;;2.34;87.38867;95944.86;;;;
2021/11/23 04:34:45;;;;;;;18.35;10.9;;;;;;;2.34;87.38867;95944.86;;;;
2021/11/23 04:35:46;;;;;;;18.35;10.9;;;;;;;2.34;87.38867;95944.86;;;;
2021/11/23 04:36:47;;;;;;;18.35;10.9;;;;;;;2.34;87.38867;95944.86;;;;
2021/11/23 04:37:47;;;;;;;18.35;10.9;;;;;;;2.34;87.38867;95944.86;;;;
2021/11/23 04:38:48;;;;;;;20.35;12.1;;;;;;;2.39;87.30469;95945.7;;;;
2021/11/23 04:39:49;;;;;;;20.35;12.1;;;;;;;2.39;87.30469;95945.7;;;;
2021/11/23 04:40:49;;;;;;;20.35;12.1;;;;;;;2.39;87.30469;95945.7;;;;
2021/11/23 04:41:50;;;;;;;20.35;12.1;;;;;;;2.39;87.30469;95945.7;;;;
2021/11/23 04:42:50;;;;;;;20.35;12.1;;;;;;;2.39;87.30469;95945.7;;;;
2021/11/23 04:43:51;;;;;;;20.35;12.1;;;;;;;2.39;87.30469;95945.7;;;;
2021/11/23 04:44:52;;;;;;;20.35;12.1;;;;;;;2.39;87.30469;95945.7;;;;
2021/11/23 04:45:53;;;;;;;20.35;12.1;;;;;;;2.39;87.30469;95945.7;;;;
2021/11/23 04:46:53;;;;;;;20.35;12.1;;;;;;;2.39;87.30469;95945.7;;;;
2021/11/23 04:47:54;;;;;;;20.35;12.1;;;;;;;2.39;87.30469;95945.7;;;;
2021/11/23 04:48:55;;;;;;;20.35;12.1;;;;;;;2.39;87.30469;95945.7;;;;
2021/11/23 04:49:56;;;;;;;21.05;12;;;;;;;2.45;87.22363;95946.26;;;;
2021/11/23 04:50:56;;;;;;;21.05;12;;;;;;;2.45;87.22363;95946.26;;;;
2021/11/23 04:51:57;;;;;;;21.05;12;;;;;;;2.45;87.22363;95946.26;;;;
2021/11/23 04:52:57;;;;;;;21.05;12;;;;;;;2.45;87.22363;95946.26;;;;
2021/11/23 04:53:58;;;;;;;21.05;12;;;;;;;2.45;87.22363;95946.26;;;;
2021/11/23 04:54:59;;;;;;;21.05;12;;;;;;;2.45;87.22363;95946.26;;;;
2021/11/23 04:56:00;;;;;;;21.05;12;;;;;;;2.45;87.22363;95946.26;;;;
2021/11/23 04:57:00;;;;;;;21.05;12;;;;;;;2.45;87.22363;95946.26;;;;
2021/11/23 04:58:01;;;;;;;21.05;12;;;;;;;2.45;87.22363;95946.26;;;;
2021/11/23 04:59:02;;;;;;;21.05;12;;;;;;;2.45;87.22363;95946.26;;;;
2021/11/23 05:00:03;;;;;;;19.25;12.05;;;;;;;2.51;87.21387;95956.74;;;;
2021/11/23 05:01:07;;;;;;;19.25;12.05;;;;;;;2.51;87.21387;95956.74;;;;
2021/11/23 05:02:08;;;;;;;19.25;12.05;;;;;;;2.51;87.21387;95956.74;;;;
2021/11/23 05:03:09;;;;;;;19.25;12.05;;;;;;;2.51;87.21387;95956.74;;;;
2021/11/23 05:04:09;;;;;;;19.25;12.05;;;;;;;2.51;87.21387;95956.74;;;;
2021/11/23 05:05:10;;;;;;;19.25;12.05;;;;;;;2.51;87.21387;95956.74;;;;
2021/11/23 05:06:13;;;;;;;19.25;12.05;;;;;;;2.51;87.21387;95956.74;;;;
2021/11/23 05:07:13;;;;;;;19.25;12.05;;;;;;;2.51;87.21387;95956.74;;;;
2021/11/23 05:08:14;;;;;;;19.25;12.05;;;;;;;2.51;87.21387;95956.74;;;;
2021/11/23 05:09:15;;;;;;;19.25;12.05;;;;;;;2.51;87.21387;95956.74;;;;
2021/11/23 05:10:15;;;;;;;19.25;12.05;;;;;;;2.51;87.21387;95956.74;;;;
2021/11/23 05:11:17;;;;;;;17.95;11.1;;;;;;;2.56;87.08984;95969.47;;;;
2021/11/23 05:12:17;;;;;;;17.95;11.1;;;;;;;2.56;87.08984;95969.47;;;;
2021/11/23 05:13:18;;;;;;;17.95;11.1;;;;;;;2.56;87.08984;95969.47;;;;
2021/11/23 05:14:18;;;;;;;17.95;11.1;;;;;;;2.56;87.08984;95969.47;;;;
2021/11/23 05:15:19;;;;;;;17.95;11.1;;;;;;;2.56;87.08984;95969.47;;;;
2021/11/23 05:16:20;;;;;;;17.95;11.1;;;;;;;2.56;87.08984;95969.47;;;;
2021/11/23 05:17:20;;;;;;;17.95;11.1;;;;;;;2.56;87.08984;95969.47;;;;
2021/11/23 05:18:20;;;;;;;17.95;11.1;;;;;;;2.56;87.08984;95969.47;;;;
2021/11/23 05:19:22;;;;;;;17.95;11.1;;;;;;;2.56;87.08984;95969.47;;;;
2021/11/23 05:20:23;;;;;;;17.95;11.1;;;;;;;2.56;87.08984;95969.47;;;;
2021/11/23 05:21:23;;;;;;;19.7;11.7;;;;;;;2.56;87.04785;95985.47;;;;
2021/11/23 05:22:24;;;;;;;19.7;11.7;;;;;;;2.56;87.04785;95985.47;;;;
2021/11/23 05:23:25;;;;;;;19.7;11.7;;;;;;;2.56;87.04785;95985.47;;;;
2021/11/23 05:24:25;;;;;;;19.7;11.7;;;;;;;2.56;87.04785;95985.47;;;;
2021/11/23 05:25:26;;;;;;;19.7;11.7;;;;;;;2.56;87.04785;95985.47;;;;
2021/11/23 05:26:27;;;;;;;19.7;11.7;;;;;;;2.56;87.04785;95985.47;;;;
2021/11/23 05:27:28;;;;;;;19.7;11.7;;;;;;;2.56;87.04785;95985.47;;;;
2021/11/23 05:28:28;;;;;;;19.7;11.7;;;;;;;2.56;87.04785;95985.47;;;;
2021/11/23 05:29:29;;;;;;;19.7;11.7;;;;;;;2.56;87.04785;95985.47;;;;
2021/11/23 05:30:29;;;;;;;19.7;11.7;;;;;;;2.56;87.04785;95985.47;;;;
2021/11/23 05:31:30;;;;;;;19.7;11.7;;;;;;;2.56;87.04785;95985.47;;;;
2021/11/23 05:32:30;;;;;;;17.8;11.25;;;;;;;2.57;87.03711;95996.47;;;;
2021/11/23 05:33:31;;;;;;;17.8;11.25;;;;;;;2.57;87.03711;95996.47;;;;
2021/11/23 05:34:32;;;;;;;17.8;11.25;;;;;;;2.57;87.03711;95996.47;;;;
2021/11/23 05:35:32;;;;;;;17.8;11.25;;;;;;;2.57;87.03711;95996.47;;;;
2021/11/23 05:36:33;;;;;;;17.8;11.25;;;;;;;2.57;87.03711;95996.47;;;;
2021/11/23 05:37:34;;;;;;;17.8;11.25;;;;;;;2.57;87.03711;95996.47;;;;
2021/11/23 05:38:34;;;;;;;17.8;11.25;;;;;;;2.57;87.03711;95996.47;;;;
2021/11/23 05:39:35;;;;;;;17.8;11.25;;;;;;;2.57;87.03711;95996.47;;;;
2021/11/23 05:40:36;;;;;;;17.8;11.25;;;;;;;2.57;87.03711;95996.47;;;;
2021/11/23 05:41:36;;;;;;;17.8;11.25;;;;;;;2.57;87.03711;95996.47;;;;
2021/11/23 05:42:37;;;;;;;20.25;12.05;;;;;;;2.53;86.93555;96001.81;;;;
2021/11/23 05:43:38;;;;;;;20.25;12.05;;;;;;;2.53;86.93555;96001.81;;;;
2021/11/23 05:44:38;;;;;;;20.25;12.05;;;;;;;2.53;86.93555;96001.81;;;;
2021/11/23 05:45:39;;;;;;;20.25;12.05;;;;;;;2.53;86.93555;96001.81;;;;
2021/11/23 05:46:40;;;;;;;20.25;12.05;;;;;;;2.53;86.93555;96001.81;;;;